createdAt,value
2018-05-15T00:00:51.994Z,71.40
2018-05-15T00:03:21.673Z,71.50
2018-05-15T00:05:52.119Z,73.50
2018-05-15T00:08:21.826Z,73.40
2018-05-15T00:10:51.535Z,73.90
2018-05-15T00:13:21.256Z,76.10
2018-05-15T00:15:50.986Z,79.30
2018-05-15T00:18:20.673Z,80.70
2018-05-15T00:20:50.373Z,79.90
2018-05-15T00:23:20.090Z,81.80
2018-05-15T00:25:51.007Z,81.00
2018-05-15T00:28:21.497Z,80.00
2018-05-15T00:30:51.536Z,79.90
2018-05-15T00:33:22.027Z,80.00
2018-05-15T00:35:51.712Z,80.00
2018-05-15T00:38:21.404Z,80.20
2018-05-15T00:40:51.836Z,79.70
2018-05-15T00:43:22.778Z,80.80
2018-05-15T00:45:52.504Z,81.60
2018-05-15T00:48:22.308Z,83.40
2018-05-15T00:50:52.001Z,83.50
2018-05-15T00:53:21.692Z,83.30
2018-05-15T00:55:52.242Z,83.80
2018-05-15T00:58:21.970Z,83.80
2018-05-15T01:00:52.337Z,83.90
2018-05-15T01:03:22.124Z,84.00
2018-05-15T01:05:51.842Z,84.20
2018-05-15T01:08:21.591Z,84.20
2018-05-15T01:10:52.056Z,84.10
2018-05-15T01:13:22.372Z,84.10
2018-05-15T01:15:52.923Z,84.00
2018-05-15T01:18:22.904Z,84.00
2018-05-15T01:20:52.692Z,84.00
2018-05-15T01:23:23.158Z,83.50
2018-05-15T01:25:53.054Z,83.50
2018-05-15T01:28:22.808Z,83.20
2018-05-15T01:30:53.172Z,83.30
2018-05-15T01:33:23.715Z,83.00
2018-05-15T01:35:54.460Z,82.80
2018-05-15T01:38:24.193Z,82.80
2018-05-15T01:40:53.902Z,82.60
2018-05-15T01:43:23.685Z,82.50
2018-05-15T01:45:53.433Z,82.30
2018-05-15T01:48:23.155Z,82.20
2018-05-15T01:50:52.865Z,82.10
2018-05-15T01:53:22.613Z,82.20
2018-05-15T01:55:53.490Z,82.30
2018-05-15T01:58:24.592Z,82.00
2018-05-15T02:00:56.144Z,81.90
2018-05-15T02:03:26.491Z,81.80
2018-05-15T02:05:57.657Z,81.60
2018-05-15T02:08:28.022Z,81.40
2018-05-15T02:10:58.354Z,81.40
2018-05-15T02:13:28.701Z,81.20
2018-05-15T02:15:59.775Z,80.80
2018-05-15T02:18:31.350Z,80.80
2018-05-15T02:21:01.769Z,80.80
2018-05-15T02:23:32.154Z,80.60
2018-05-15T02:26:02.566Z,80.50
2018-05-15T02:28:34.863Z,80.50
2018-05-15T02:31:05.236Z,80.40
2018-05-15T02:33:35.641Z,80.40
2018-05-15T02:36:06.701Z,80.30
2018-05-15T02:38:37.944Z,80.10
2018-05-15T02:41:08.289Z,80.10
2018-05-15T02:43:39.484Z,80.00
2018-05-15T02:46:11.015Z,80.00
2018-05-15T02:48:41.791Z,79.90
2018-05-15T02:51:13.629Z,79.70
2018-05-15T02:53:44.603Z,79.60
2018-05-15T02:56:15.020Z,79.80
2018-05-15T02:58:45.423Z,79.60
2018-05-15T03:01:15.778Z,79.60
2018-05-15T03:03:46.126Z,79.40
2018-05-15T03:06:16.825Z,79.40
2018-05-15T03:08:47.140Z,79.20
2018-05-15T03:11:17.197Z,79.30
2018-05-15T03:13:46.938Z,79.00
2018-05-15T03:16:16.654Z,79.00
2018-05-15T03:18:46.748Z,79.10
2018-05-15T03:21:20.239Z,78.90
2018-05-15T03:23:51.276Z,78.70
2018-05-15T03:26:21.742Z,78.70
2018-05-15T03:28:51.458Z,78.70
2018-05-15T03:31:21.358Z,78.50
2018-05-15T03:33:51.084Z,78.50
2018-05-15T03:36:21.159Z,78.70
2018-05-15T03:38:51.648Z,78.30
2018-05-15T03:41:21.941Z,78.30
2018-05-15T03:43:52.493Z,78.50
2018-05-15T03:46:22.225Z,78.50
2018-05-15T03:48:51.968Z,78.50
2018-05-15T03:51:22.497Z,78.30
2018-05-15T03:53:52.636Z,78.30
2018-05-15T03:56:22.324Z,78.20
2018-05-15T03:58:52.786Z,78.10
2018-05-15T04:01:33.529Z,78.00
2018-05-15T04:04:14.294Z,78.00
2018-05-15T04:06:58.065Z,77.80
2018-05-15T04:09:27.870Z,77.80
2018-05-15T04:11:58.893Z,77.70
2018-05-15T04:14:28.634Z,77.60
2018-05-15T04:16:58.313Z,77.50
2018-05-15T04:19:28.497Z,77.40
2018-05-15T04:22:00.212Z,77.30
2018-05-15T04:24:31.336Z,77.20
2018-05-15T04:27:01.047Z,77.10
2018-05-15T04:29:33.444Z,77.10
2018-05-15T04:32:03.833Z,77.10
2018-05-15T04:34:33.558Z,77.00
2018-05-15T04:37:03.383Z,77.00
2018-05-15T04:39:33.120Z,77.00
2018-05-15T04:42:02.885Z,76.90
2018-05-15T04:44:32.593Z,76.70
2018-05-15T04:47:02.323Z,76.60
2018-05-15T04:49:32.163Z,76.60
2018-05-15T04:52:01.915Z,76.60
2018-05-15T04:54:31.927Z,76.60
2018-05-15T04:57:02.467Z,76.40
2018-05-15T04:59:32.325Z,76.30
2018-05-15T05:02:02.099Z,76.20
2018-05-15T05:04:31.819Z,76.30
2018-05-15T05:07:02.004Z,76.20
2018-05-15T05:09:33.729Z,76.10
2018-05-15T05:12:04.467Z,76.10
2018-05-15T05:14:34.209Z,76.00
2018-05-15T05:17:04.683Z,75.80
2018-05-15T05:19:34.389Z,75.80
2018-05-15T05:22:04.091Z,75.80
2018-05-15T05:24:34.189Z,75.90
2018-05-15T05:27:03.968Z,75.80
2018-05-15T05:29:34.813Z,75.70
2018-05-15T05:32:05.319Z,75.70
2018-05-15T05:34:35.044Z,75.60
2018-05-15T05:37:04.875Z,75.70
2018-05-15T05:39:34.608Z,75.60
2018-05-15T05:42:04.879Z,75.60
2018-05-15T05:44:34.580Z,75.50
2018-05-15T05:47:04.316Z,75.60
2018-05-15T05:49:34.793Z,75.40
2018-05-15T05:52:04.618Z,75.30
2018-05-15T05:54:34.878Z,75.40
2018-05-15T05:57:05.348Z,75.30
2018-05-15T05:59:35.348Z,75.30
2018-05-15T06:02:05.040Z,75.90
2018-05-15T06:04:35.876Z,74.90
2018-05-15T06:07:06.998Z,74.60
2018-05-15T06:09:37.483Z,74.50
2018-05-15T06:12:07.582Z,74.50
2018-05-15T06:14:37.284Z,74.30
2018-05-15T06:17:08.011Z,74.20
2018-05-15T06:19:38.487Z,74.00
2018-05-15T06:22:08.227Z,73.90
2018-05-15T06:24:37.957Z,73.90
2018-05-15T06:27:08.483Z,73.70
2018-05-15T06:29:38.952Z,73.60
2018-05-15T06:32:08.648Z,73.50
2018-05-15T06:34:38.329Z,73.40
2018-05-15T06:37:08.838Z,73.50
2018-05-15T06:39:38.568Z,73.40
2018-05-15T06:42:09.738Z,73.30
2018-05-15T06:44:39.513Z,73.20
2018-05-15T06:47:09.998Z,73.00
2018-05-15T06:49:39.688Z,73.00
2018-05-15T06:52:09.414Z,72.90
2018-05-15T06:54:39.148Z,72.90
2018-05-15T06:57:08.828Z,72.80
2018-05-15T07:02:12.973Z,72.80
2018-05-15T07:04:43.037Z,72.80
2018-05-15T07:07:13.507Z,72.50
2018-05-15T07:09:43.221Z,72.60
2018-05-15T07:12:12.935Z,72.50
2018-05-15T07:14:42.670Z,72.40
2018-05-15T07:17:13.025Z,71.70
2018-05-15T07:19:43.499Z,72.20
2018-05-15T07:22:13.215Z,72.10
2018-05-15T07:24:42.898Z,72.40
2018-05-15T07:27:12.593Z,72.30
2018-05-15T07:29:42.392Z,72.40
2018-05-15T07:32:12.865Z,72.40
2018-05-15T07:34:42.943Z,72.40
2018-05-15T07:37:13.409Z,72.20
2018-05-15T07:39:43.092Z,72.20
2018-05-15T07:42:12.816Z,72.10
2018-05-15T07:44:42.565Z,71.80
2018-05-15T07:47:12.232Z,71.80
2018-05-15T07:49:42.080Z,71.90
2018-05-15T07:52:12.230Z,71.80
2018-05-15T07:54:42.711Z,71.90
2018-05-15T07:57:12.402Z,71.70
2018-05-15T08:02:15.994Z,71.80
2018-05-15T08:04:47.865Z,71.90
2018-05-15T08:07:17.584Z,71.80
2018-05-15T08:09:47.456Z,71.80
2018-05-15T08:12:17.194Z,71.80
2018-05-15T08:14:46.923Z,72.00
2018-05-15T08:17:17.945Z,72.00
2018-05-15T08:19:47.644Z,71.90
2018-05-15T08:22:18.385Z,71.90
2018-05-15T08:24:48.119Z,72.00
2018-05-15T08:27:17.820Z,72.00
2018-05-15T08:29:48.118Z,72.00
2018-05-15T08:32:18.579Z,72.10
2018-05-15T08:34:49.460Z,72.10
2018-05-15T08:37:19.216Z,72.10
2018-05-15T08:39:49.327Z,72.10
2018-05-15T08:42:19.054Z,72.10
2018-05-15T08:44:49.799Z,72.10
2018-05-15T08:47:19.513Z,72.10
2018-05-15T08:49:49.239Z,72.10
2018-05-15T08:52:19.477Z,72.10
2018-05-15T08:54:50.131Z,72.40
2018-05-15T08:57:20.611Z,72.10
2018-05-15T08:59:50.330Z,72.10
2018-05-15T09:02:20.020Z,72.90
2018-05-15T09:04:50.085Z,72.30
2018-05-15T09:07:20.584Z,72.10
2018-05-15T09:09:50.946Z,72.10
2018-05-15T09:12:21.427Z,72.10
2018-05-15T09:14:51.136Z,72.10
2018-05-15T09:17:20.838Z,72.10
2018-05-15T09:19:50.571Z,72.20
2018-05-15T09:22:20.506Z,72.20
2018-05-15T09:24:50.194Z,72.20
2018-05-15T09:27:20.246Z,72.10
2018-05-15T09:29:50.757Z,72.10
2018-05-15T09:32:21.648Z,72.10
2018-05-15T09:34:51.359Z,72.10
2018-05-15T09:37:21.052Z,72.20
2018-05-15T09:39:50.806Z,72.10
2018-05-15T09:42:20.508Z,71.90
2018-05-15T09:44:50.215Z,71.90
2018-05-15T09:47:19.969Z,71.80
2018-05-15T09:49:50.498Z,71.90
2018-05-15T09:52:21.104Z,71.80
2018-05-15T09:54:50.889Z,71.70
2018-05-15T09:57:20.845Z,71.80
2018-05-15T09:59:50.666Z,71.90
2018-05-15T10:02:21.199Z,71.80
2018-05-15T10:04:51.700Z,71.90
2018-05-15T10:07:21.454Z,71.90
2018-05-15T10:09:52.685Z,71.80
2018-05-15T10:12:23.184Z,71.80
2018-05-15T10:14:52.899Z,71.70
2018-05-15T10:17:23.138Z,71.70
2018-05-15T10:19:53.664Z,71.70
2018-05-15T10:22:24.135Z,72.00
2018-05-15T10:24:53.865Z,72.00
2018-05-15T10:27:25.224Z,72.10
2018-05-15T10:29:55.000Z,72.10
2018-05-15T10:32:24.779Z,72.10
2018-05-15T10:34:55.258Z,71.90
2018-05-15T10:37:25.118Z,71.80
2018-05-15T10:39:56.047Z,72.10
2018-05-15T10:42:25.779Z,72.00
2018-05-15T10:44:56.514Z,72.40
2018-05-15T10:47:27.007Z,72.70
2018-05-15T10:49:56.720Z,72.60
2018-05-15T10:52:27.365Z,72.70
2018-05-15T10:54:57.966Z,73.00
2018-05-15T10:57:28.425Z,73.00
2018-05-15T10:59:58.205Z,73.30
2018-05-15T11:02:27.950Z,73.40
2018-05-15T11:04:58.439Z,73.00
2018-05-15T11:07:28.183Z,73.00
2018-05-15T11:09:58.663Z,73.10
2018-05-15T11:12:28.373Z,73.00
2018-05-15T11:14:58.546Z,73.10
2018-05-15T11:17:29.014Z,73.00
2018-05-15T11:23:17.755Z,73.90
2018-05-15T11:25:50.054Z,74.50
2018-05-15T11:28:20.354Z,74.40
2018-05-15T11:30:50.833Z,73.90
2018-05-15T11:33:20.567Z,73.90
2018-05-15T11:35:50.273Z,74.00
2018-05-15T11:38:20.511Z,73.70
2018-05-15T11:40:51.970Z,74.30
2018-05-15T11:43:21.743Z,74.30
2018-05-15T11:45:52.224Z,74.90
2018-05-15T11:48:22.043Z,74.80
2018-05-15T11:50:53.383Z,74.70
2018-05-15T11:53:23.223Z,75.00
2018-05-15T11:55:53.425Z,75.00
2018-05-15T11:58:23.160Z,75.40
2018-05-15T12:00:52.992Z,75.70
2018-05-15T12:03:22.730Z,75.90
2018-05-15T12:05:53.204Z,76.40
2018-05-15T12:08:23.690Z,76.30
2018-05-15T12:10:53.454Z,76.50
2018-05-15T12:13:23.627Z,76.50
2018-05-15T12:15:54.128Z,76.40
2018-05-15T12:18:23.904Z,76.30
2018-05-15T12:20:53.647Z,76.20
2018-05-15T12:23:23.410Z,76.10
2018-05-15T12:25:53.927Z,76.20
2018-05-15T12:28:23.630Z,76.30
2018-05-15T12:30:53.332Z,76.50
2018-05-15T12:33:23.898Z,76.50
2018-05-15T12:35:53.605Z,76.40
2018-05-15T12:38:23.420Z,76.60
2018-05-15T12:40:53.173Z,76.70
2018-05-15T12:43:23.323Z,76.90
2018-05-15T12:45:53.041Z,76.90
2018-05-15T12:48:22.836Z,77.10
2018-05-15T12:50:53.332Z,77.50
2018-05-15T12:53:23.047Z,77.50
2018-05-15T12:55:53.096Z,77.50
2018-05-15T12:58:23.580Z,77.60
2018-05-15T13:00:53.821Z,77.50
2018-05-15T13:03:23.538Z,77.30
2018-05-15T13:05:54.004Z,77.00
2018-05-15T13:08:23.693Z,77.00
2018-05-15T13:10:54.147Z,77.50
2018-05-15T13:13:23.871Z,77.50
2018-05-15T13:15:53.583Z,77.50
2018-05-15T13:18:23.347Z,77.40
2018-05-15T13:20:53.074Z,77.60
2018-05-15T13:23:22.766Z,77.80
2018-05-15T13:25:58.463Z,78.40
2018-05-15T13:28:28.159Z,78.40
2018-05-15T13:30:58.360Z,78.20
2018-05-15T13:33:28.082Z,78.20
2018-05-15T13:35:57.822Z,78.20
2018-05-15T13:38:27.586Z,78.40
2018-05-15T13:40:57.371Z,78.40
2018-05-15T13:43:28.411Z,78.40
2018-05-15T13:45:58.141Z,78.40
2018-05-15T13:48:29.630Z,78.40
2018-05-15T13:50:59.321Z,78.30
2018-05-15T13:53:29.269Z,78.30
2018-05-15T13:55:58.985Z,77.90
2018-05-15T13:58:28.726Z,77.90
2018-05-15T14:01:00.540Z,77.90
2018-05-15T14:03:30.275Z,77.60
2018-05-15T14:06:00.417Z,77.50
2018-05-15T14:08:30.900Z,77.60
2018-05-15T14:11:00.607Z,77.60
2018-05-15T14:13:30.338Z,77.70
2018-05-15T14:16:00.103Z,77.80
2018-05-15T14:18:30.331Z,77.80
2018-05-15T14:21:00.042Z,77.80
2018-05-15T14:23:29.766Z,77.90
2018-05-15T14:26:00.010Z,78.00
2018-05-15T14:28:29.732Z,78.10
2018-05-15T14:30:59.433Z,77.90
2018-05-15T14:33:29.171Z,78.50
2018-05-15T14:36:00.030Z,79.70
2018-05-15T14:38:29.752Z,79.70
2018-05-15T14:40:59.452Z,80.90
2018-05-15T14:43:29.408Z,81.00
2018-05-15T14:45:59.362Z,81.50
2018-05-15T14:48:30.396Z,82.00
2018-05-15T14:51:30.097Z,81.70
2018-05-15T14:54:00.247Z,81.70
2018-05-15T14:56:29.969Z,82.20
2018-05-15T14:59:00.426Z,81.30
2018-05-15T15:01:30.501Z,81.10
2018-05-15T15:04:00.239Z,81.50
2018-05-15T15:06:30.620Z,81.70
2018-05-15T15:09:01.158Z,82.50
2018-05-15T15:11:31.648Z,82.40
2018-05-15T15:14:01.414Z,82.40
2018-05-15T15:16:31.151Z,82.40
2018-05-15T15:19:01.628Z,82.30
2018-05-15T15:21:32.115Z,81.90
2018-05-15T15:24:01.820Z,81.90
2018-05-15T15:26:31.510Z,80.70
2018-05-15T15:29:01.207Z,80.50
2018-05-15T15:31:31.029Z,80.70
2018-05-15T15:34:00.761Z,81.40
2018-05-15T15:39:04.590Z,74.10
2018-05-15T15:41:34.307Z,71.00
2018-05-15T15:44:04.025Z,68.50
2018-05-15T15:46:33.790Z,65.70
2018-05-15T15:49:04.856Z,63.50
2018-05-15T15:51:34.554Z,61.90
2018-05-15T15:54:04.856Z,59.60
2018-05-15T15:56:34.602Z,58.80
2018-05-15T15:59:04.309Z,57.80
2018-05-15T16:01:33.994Z,57.10
2018-05-15T16:04:04.685Z,56.00
2018-05-15T16:06:35.194Z,55.80
2018-05-15T16:09:05.185Z,56.40
2018-05-15T16:11:35.088Z,58.50
2018-05-15T16:14:04.778Z,60.70
2018-05-15T16:16:34.515Z,60.10
2018-05-15T16:19:04.214Z,58.60
2018-05-15T16:21:33.901Z,57.20
2018-05-15T16:24:03.915Z,56.30
2018-05-15T16:26:34.444Z,58.80
2018-05-15T16:29:04.935Z,61.00
2018-05-15T16:31:34.882Z,60.90
2018-05-15T16:34:05.327Z,58.30
2018-05-15T16:36:35.152Z,58.30
2018-05-15T16:39:05.073Z,60.70
2018-05-15T16:41:35.382Z,62.90
2018-05-15T16:44:05.063Z,64.20
2018-05-15T16:46:35.586Z,61.20
2018-05-15T16:49:05.469Z,61.20
2018-05-15T16:51:35.218Z,63.50
2018-05-15T16:54:05.681Z,63.40
2018-05-15T16:56:35.444Z,63.30
2018-05-15T16:59:05.274Z,60.40
2018-05-15T17:01:35.807Z,64.20
2018-05-15T17:04:06.406Z,65.80
2018-05-15T17:06:36.140Z,65.80
2018-05-15T17:09:06.904Z,60.20
2018-05-15T17:11:36.624Z,60.20
2018-05-15T17:14:06.296Z,62.80
2018-05-15T17:16:36.820Z,65.70
2018-05-15T17:19:07.290Z,62.40
2018-05-15T17:21:37.017Z,62.20
2018-05-15T17:24:07.348Z,61.40
2018-05-15T17:26:37.103Z,63.90
2018-05-15T17:29:08.566Z,64.40
2018-05-15T17:31:38.331Z,64.30
2018-05-15T17:34:08.048Z,61.40
2018-05-15T17:36:37.739Z,64.00
2018-05-15T17:39:08.232Z,65.70
2018-05-15T17:41:38.219Z,66.90
2018-05-15T17:44:08.667Z,65.70
2018-05-15T17:46:39.712Z,65.70
2018-05-15T17:49:09.414Z,67.10
2018-05-15T17:51:39.176Z,67.60
2018-05-15T17:54:08.891Z,63.90
2018-05-15T17:56:38.588Z,65.80
2018-05-15T17:59:08.416Z,67.50
2018-05-15T18:01:38.220Z,68.50
2018-05-15T18:04:07.942Z,65.00
2018-05-15T18:06:38.508Z,68.90
2018-05-15T18:09:08.216Z,68.90
2018-05-15T18:11:37.990Z,68.80
2018-05-15T18:14:07.690Z,65.00
2018-05-15T18:16:37.744Z,66.90
2018-05-15T18:19:08.309Z,69.50
2018-05-15T18:21:38.081Z,69.50
2018-05-15T18:24:08.401Z,65.70
2018-05-15T18:26:38.945Z,69.10
2018-05-15T18:29:09.049Z,69.10
2018-05-15T18:31:39.596Z,66.90
2018-05-15T18:34:09.535Z,66.80
2018-05-15T18:36:39.272Z,68.90
2018-05-15T18:39:09.003Z,70.10
2018-05-15T18:41:39.666Z,70.30
2018-05-15T18:44:09.398Z,70.20
2018-05-15T18:46:40.235Z,71.40
2018-05-15T18:49:09.930Z,72.30
2018-05-15T18:51:39.681Z,68.70
2018-05-15T18:54:09.420Z,70.50
2018-05-15T18:56:39.962Z,71.10
2018-05-15T18:59:10.467Z,70.30
2018-05-15T19:01:40.277Z,70.30
2018-05-15T19:04:11.444Z,71.60
2018-05-15T19:06:42.008Z,70.20
2018-05-15T19:09:11.713Z,70.20
2018-05-15T19:11:41.402Z,71.30
2018-05-15T19:14:11.117Z,72.50
2018-05-15T19:16:41.277Z,73.10
2018-05-15T19:19:11.041Z,69.80
2018-05-15T19:21:41.957Z,71.70
2018-05-15T19:24:12.489Z,71.10
2018-05-15T19:26:43.026Z,71.60
2018-05-15T19:29:13.485Z,72.70
2018-05-15T19:31:43.438Z,72.70
2018-05-15T19:34:18.820Z,73.70
2018-05-15T19:36:53.432Z,72.10
2018-05-15T19:39:29.205Z,73.30
2018-05-15T19:41:59.077Z,74.00
2018-05-15T19:44:28.815Z,71.70
2018-05-15T19:46:59.686Z,72.40
2018-05-15T19:49:29.402Z,72.40
2018-05-15T19:51:59.834Z,73.60
2018-05-15T19:54:29.538Z,71.40
2018-05-15T19:56:59.306Z,72.50
2018-05-15T19:59:29.796Z,74.40
2018-05-15T20:01:59.583Z,74.40
2018-05-15T20:04:30.159Z,72.70
2018-05-15T20:07:00.685Z,75.00
2018-05-15T20:09:31.255Z,75.00
2018-05-15T20:12:01.068Z,72.40
2018-05-15T20:14:30.776Z,72.70
2018-05-15T20:17:00.483Z,74.10
2018-05-15T20:19:30.194Z,75.10
2018-05-15T20:22:00.316Z,71.50
2018-05-15T20:24:30.012Z,73.20
2018-05-15T20:26:59.780Z,74.40
2018-05-15T20:29:30.697Z,73.00
2018-05-15T20:32:00.429Z,73.20
2018-05-15T20:34:30.565Z,74.50
2018-05-15T20:37:00.302Z,75.40
2018-05-15T20:39:30.346Z,71.80
2018-05-15T20:42:00.086Z,73.40
2018-05-15T20:44:29.794Z,74.70
2018-05-15T20:46:59.488Z,74.30
2018-05-15T20:49:29.176Z,74.80
2018-05-15T20:51:58.891Z,75.80
2018-05-15T20:54:28.576Z,76.40
2018-05-15T20:56:58.759Z,72.00
2018-05-15T20:59:28.471Z,71.20
2018-05-15T21:01:58.200Z,72.80
2018-05-15T21:04:28.639Z,73.20
2018-05-15T21:06:59.113Z,74.40
2018-05-15T21:09:29.070Z,74.40
2018-05-15T21:11:59.537Z,76.20
2018-05-15T21:14:29.623Z,76.10
2018-05-15T21:17:00.098Z,73.50
2018-05-15T21:19:30.759Z,73.50
2018-05-15T21:22:00.595Z,74.80
2018-05-15T21:24:30.297Z,74.20
2018-05-15T21:27:01.977Z,76.20
2018-05-15T21:29:31.661Z,76.10
2018-05-15T21:32:02.148Z,74.10
2018-05-15T21:34:31.820Z,74.10
2018-05-15T21:37:01.524Z,75.50
2018-05-15T21:39:32.216Z,76.50
2018-05-15T21:42:01.931Z,74.60
2018-05-15T21:44:31.592Z,75.90
2018-05-15T21:47:01.253Z,77.20
2018-05-15T21:49:30.901Z,75.20
2018-05-15T21:52:00.797Z,75.10
2018-05-15T21:54:31.215Z,77.40
2018-05-15T21:57:02.570Z,73.30
2018-05-15T21:59:33.018Z,74.90
2018-05-15T22:02:03.074Z,74.90
2018-05-15T22:04:32.747Z,76.10
2018-05-15T22:07:02.415Z,76.30
2018-05-15T22:09:32.250Z,76.00
2018-05-15T22:12:13.741Z,77.50
2018-05-15T22:14:54.798Z,77.50
2018-05-15T22:17:36.263Z,76.20
2018-05-15T22:20:17.927Z,76.20
2018-05-15T22:22:47.351Z,77.40
2018-05-15T22:25:17.039Z,73.80
2018-05-15T22:27:47.849Z,75.60
2018-05-15T22:30:17.528Z,76.00
2018-05-15T22:32:48.071Z,76.00
2018-05-15T22:35:17.771Z,76.00
2018-05-15T22:37:48.245Z,77.80
2018-05-15T22:40:18.337Z,77.80
2018-05-15T22:42:48.066Z,74.20
2018-05-15T22:45:17.729Z,75.60
2018-05-15T22:47:48.220Z,76.10
2018-05-15T22:50:17.876Z,75.90
2018-05-15T22:52:48.363Z,77.50
2018-05-15T22:55:18.008Z,77.50
2018-05-15T22:57:48.894Z,75.90
2018-05-15T23:00:19.210Z,75.90
2018-05-15T23:02:48.914Z,77.20
2018-05-15T23:05:18.596Z,78.20
2018-05-15T23:07:50.072Z,76.50
2018-05-15T23:10:20.067Z,76.50
2018-05-15T23:12:49.770Z,77.60
2018-05-15T23:15:21.405Z,76.00
2018-05-15T23:17:51.136Z,76.00
2018-05-15T23:20:20.808Z,77.20
2018-05-15T23:22:50.479Z,78.10
2018-05-15T23:25:20.153Z,76.70
2018-05-15T23:27:50.654Z,78.50
2018-05-15T23:30:20.400Z,78.50
2018-05-15T23:32:50.132Z,75.30
2018-05-15T23:35:19.817Z,75.90
2018-05-15T23:37:50.382Z,78.10
2018-05-15T23:40:20.048Z,78.00
2018-05-15T23:42:50.575Z,77.80
2018-05-15T23:45:22.667Z,78.60
2018-05-15T23:47:52.427Z,78.50
2018-05-15T23:50:22.161Z,74.20
2018-05-15T23:52:52.684Z,76.60
2018-05-15T23:55:22.341Z,76.60
2018-05-15T23:57:53.425Z,76.50
